createdAt,value
2023-04-25T00:00:49.745Z,90.32
2023-04-25T00:01:53.980Z,90.37
2023-04-25T00:02:58.379Z,90.39
2023-04-25T00:04:02.658Z,90.44
2023-04-25T00:05:06.924Z,90.36
2023-04-25T00:06:11.134Z,90.30
2023-04-25T00:07:15.500Z,90.47
2023-04-25T00:08:19.707Z,90.59
2023-04-25T00:09:23.937Z,90.70
2023-04-25T00:10:28.168Z,90.87
2023-04-25T00:11:32.419Z,90.89
2023-04-25T00:12:36.698Z,90.95
2023-04-25T00:13:40.927Z,91.00
2023-04-25T00:14:45.108Z,91.30
2023-04-25T00:15:49.474Z,91.24
2023-04-25T00:16:53.669Z,91.34
2023-04-25T00:17:57.963Z,91.52
2023-04-25T00:19:02.166Z,91.88
2023-04-25T00:20:06.467Z,92.14
2023-04-25T00:21:13.686Z,92.17
2023-04-25T00:22:17.074Z,92.31
2023-04-25T00:23:21.428Z,92.51
2023-04-25T00:24:25.711Z,92.73
2023-04-25T00:25:29.839Z,92.82
2023-04-25T00:26:34.048Z,92.94
2023-04-25T00:27:38.422Z,93.14
2023-04-25T00:28:42.697Z,93.12
2023-04-25T00:29:46.940Z,93.08
2023-04-25T00:30:51.219Z,93.08
2023-04-25T00:31:55.482Z,93.18
2023-04-25T00:32:59.747Z,93.22
2023-04-25T00:34:10.053Z,93.38
2023-04-25T00:35:12.894Z,93.48
2023-04-25T00:36:17.087Z,93.62
2023-04-25T00:37:21.381Z,93.85
2023-04-25T00:38:25.675Z,93.99
2023-04-25T00:39:29.896Z,94.03
2023-04-25T00:40:34.204Z,94.16
2023-04-25T00:41:38.561Z,94.30
2023-04-25T00:42:42.688Z,94.44
2023-04-25T00:43:47.010Z,94.70
2023-04-25T00:44:51.258Z,94.87
2023-04-25T00:45:55.639Z,94.86
2023-04-25T00:46:59.999Z,94.80
2023-04-25T00:48:04.231Z,95.16
2023-04-25T00:49:08.496Z,95.23
2023-04-25T00:50:12.820Z,95.19
2023-04-25T00:51:17.059Z,95.08
2023-04-25T00:52:21.331Z,94.93
2023-04-25T00:53:25.615Z,94.85
2023-04-25T00:54:29.951Z,94.84
2023-04-25T00:55:34.222Z,94.90
2023-04-25T00:56:38.460Z,95.00
2023-04-25T00:57:42.729Z,95.03
2023-04-25T00:59:01.048Z,95.16
2023-04-25T01:00:04.109Z,95.11
2023-04-25T01:01:08.419Z,95.05
2023-04-25T01:02:12.650Z,95.07
2023-04-25T01:03:16.971Z,95.14
2023-04-25T01:04:21.292Z,95.12
2023-04-25T01:05:25.394Z,95.12
2023-04-25T01:06:29.730Z,95.08
2023-04-25T01:07:33.905Z,94.95
2023-04-25T01:08:38.192Z,94.91
2023-04-25T01:09:43.492Z,95.07
2023-04-25T01:10:47.311Z,95.31
2023-04-25T01:11:51.637Z,95.43
2023-04-25T01:24:26.682Z,95.19
2023-04-25T01:25:30.514Z,95.30
2023-04-25T01:26:34.673Z,95.39
2023-04-25T01:27:38.967Z,95.48
2023-04-25T01:28:46.219Z,95.45
2023-04-25T01:29:49.637Z,95.66
2023-04-25T01:30:53.849Z,95.70
2023-04-25T01:31:58.147Z,95.75
2023-04-25T01:33:02.422Z,95.84
2023-04-25T01:34:06.733Z,95.74
2023-04-25T01:35:10.973Z,95.74
2023-04-25T01:36:15.239Z,95.71
2023-04-25T01:37:19.603Z,95.76
2023-04-25T01:38:23.828Z,95.80
2023-04-25T01:39:42.094Z,95.76
2023-04-25T01:40:45.697Z,95.71
2023-04-25T01:41:49.489Z,95.79
2023-04-25T01:42:53.844Z,95.76
2023-04-25T01:43:58.153Z,95.72
2023-04-25T01:45:02.477Z,95.88
2023-04-25T01:46:06.759Z,95.93
2023-04-25T01:47:10.979Z,96.04
2023-04-25T01:48:15.261Z,96.23
2023-04-25T01:49:19.574Z,96.25
2023-04-25T01:50:23.834Z,96.32
2023-04-25T01:51:28.068Z,96.29
2023-04-25T01:52:32.370Z,96.29
2023-04-25T01:53:36.610Z,96.31
2023-04-25T01:54:40.973Z,96.30
2023-04-25T01:55:45.253Z,96.21
2023-04-25T01:56:49.513Z,96.21
2023-04-25T01:57:53.711Z,96.16
2023-04-25T01:58:57.971Z,96.08
2023-04-25T02:00:02.246Z,96.06
2023-04-25T02:01:06.425Z,95.99
2023-04-25T02:02:10.738Z,95.99
2023-04-25T02:03:15.295Z,95.89
2023-04-25T02:04:19.514Z,95.81
2023-04-25T02:05:23.542Z,95.87
2023-04-25T02:06:27.746Z,95.90
2023-04-25T02:07:32.074Z,95.97
2023-04-25T02:08:36.398Z,95.92
2023-04-25T02:09:40.609Z,95.88
2023-04-25T02:10:44.888Z,95.89
2023-04-25T02:11:49.178Z,96.01
2023-04-25T02:12:53.530Z,95.99
2023-04-25T02:13:57.801Z,95.98
2023-04-25T02:15:02.025Z,96.01
2023-04-25T02:16:06.432Z,95.99
2023-04-25T02:17:10.678Z,96.00
2023-04-25T02:18:14.948Z,96.03
2023-04-25T02:19:19.169Z,96.11
2023-04-25T02:20:23.520Z,96.02
2023-04-25T02:21:27.823Z,95.99
2023-04-25T02:22:32.021Z,95.96
2023-04-25T02:23:36.381Z,95.91
2023-04-25T02:24:40.689Z,95.96
2023-04-25T02:25:45.017Z,95.96
2023-04-25T02:26:49.206Z,95.94
2023-04-25T02:27:53.473Z,95.98
2023-04-25T02:28:57.769Z,96.07
2023-04-25T02:30:01.993Z,96.15
2023-04-25T02:31:06.247Z,96.08
2023-04-25T02:32:10.465Z,96.10
2023-04-25T02:33:14.849Z,96.13
2023-04-25T02:34:19.044Z,96.09
2023-04-25T02:35:26.234Z,96.07
2023-04-25T02:36:29.594Z,96.07
2023-04-25T02:37:33.949Z,96.09
2023-04-25T02:38:38.277Z,96.17
2023-04-25T02:39:42.476Z,96.34
2023-04-25T02:40:46.795Z,96.40
2023-04-25T02:41:51.066Z,96.50
2023-04-25T02:42:55.154Z,96.61
2023-04-25T02:43:59.483Z,96.65
2023-04-25T02:45:03.861Z,96.66
2023-04-25T02:46:08.196Z,96.61
2023-04-25T02:47:12.346Z,96.58
2023-04-25T02:48:16.613Z,96.51
2023-04-25T02:49:20.861Z,96.49
2023-04-25T02:50:25.092Z,96.44
2023-04-25T02:51:29.414Z,96.37
2023-04-25T02:52:47.709Z,96.29
2023-04-25T02:53:51.085Z,96.24
2023-04-25T02:54:54.841Z,96.16
2023-04-25T02:56:05.115Z,96.10
2023-04-25T02:57:08.077Z,96.02
2023-04-25T02:58:12.340Z,96.02
2023-04-25T02:59:16.579Z,95.98
2023-04-25T03:00:20.929Z,95.94
2023-04-25T03:01:25.204Z,95.89
2023-04-25T03:02:29.537Z,95.95
2023-04-25T03:03:33.710Z,95.96
2023-04-25T03:04:38.078Z,95.86
2023-04-25T03:05:42.358Z,95.89
2023-04-25T03:06:46.573Z,95.88
2023-04-25T03:07:50.918Z,95.92
2023-04-25T03:08:55.158Z,95.87
2023-04-25T03:09:59.538Z,95.89
2023-04-25T03:11:06.822Z,96.04
2023-04-25T03:12:10.127Z,96.13
2023-04-25T03:13:14.380Z,96.04
2023-04-25T03:14:18.628Z,96.25
2023-04-25T03:15:23.012Z,96.34
2023-04-25T03:16:27.259Z,96.41
2023-04-25T03:17:31.533Z,96.53
2023-04-25T03:18:35.723Z,96.64
2023-04-25T03:19:40.020Z,96.62
2023-04-25T03:20:44.481Z,96.70
2023-04-25T03:21:48.594Z,96.73
2023-04-25T03:22:52.924Z,96.73
2023-04-25T03:23:57.216Z,96.81
2023-04-25T03:25:01.421Z,96.92
2023-04-25T03:26:05.785Z,96.93
2023-04-25T03:27:10.086Z,96.90
2023-04-25T03:28:14.405Z,96.89
2023-04-25T03:29:18.680Z,96.79
2023-04-25T03:30:22.959Z,96.70
2023-04-25T03:31:27.154Z,96.54
2023-04-25T03:32:31.479Z,96.33
2023-04-25T03:33:35.699Z,96.05
2023-04-25T03:34:40.065Z,95.89
2023-04-25T03:35:44.271Z,95.66
2023-04-25T03:36:48.537Z,95.49
2023-04-25T03:37:52.766Z,95.28
2023-04-25T03:38:58.021Z,95.08
2023-04-25T03:40:15.910Z,94.96
2023-04-25T03:41:18.885Z,94.72
2023-04-25T03:42:23.108Z,94.54
2023-04-25T03:43:27.454Z,94.32
2023-04-25T03:44:31.632Z,94.14
2023-04-25T03:45:35.901Z,94.01
2023-04-25T03:46:40.168Z,93.86
2023-04-25T03:47:44.589Z,93.59
2023-04-25T03:48:48.702Z,93.44
2023-04-25T03:49:52.944Z,93.29
2023-04-25T03:50:57.196Z,93.17
2023-04-25T03:52:01.513Z,92.98
2023-04-25T03:53:19.762Z,92.90
2023-04-25T03:54:22.986Z,92.83
2023-04-25T03:55:27.166Z,92.83
2023-04-25T03:56:31.403Z,92.77
2023-04-25T03:57:35.634Z,92.71
2023-04-25T03:58:39.912Z,92.53
2023-04-25T03:59:44.156Z,92.41
2023-04-25T04:00:48.379Z,92.32
2023-04-25T04:01:52.755Z,92.29
2023-04-25T04:02:57.072Z,92.22
2023-04-25T04:04:01.537Z,92.15
2023-04-25T04:05:05.626Z,92.03
2023-04-25T04:06:09.831Z,91.88
2023-04-25T04:07:14.061Z,91.79
2023-04-25T04:08:18.341Z,91.64
2023-04-25T04:09:22.598Z,91.56
2023-04-25T04:10:26.833Z,91.38
2023-04-25T04:11:31.178Z,91.25
2023-04-25T04:12:35.435Z,91.02
2023-04-25T04:13:39.665Z,90.89
2023-04-25T04:14:43.981Z,90.77
2023-04-25T04:15:48.213Z,90.68
2023-04-25T04:16:52.570Z,90.33
2023-04-25T04:18:02.847Z,90.11
2023-04-25T04:19:05.750Z,90.04
2023-04-25T04:20:09.928Z,89.89
2023-04-25T04:21:14.157Z,89.83
2023-04-25T04:22:18.276Z,89.87
2023-04-25T04:23:22.584Z,89.91
2023-04-25T04:24:26.809Z,89.73
2023-04-25T04:25:31.066Z,89.67
2023-04-25T04:26:35.272Z,89.59
2023-04-25T04:27:39.508Z,89.48
2023-04-25T04:28:43.707Z,89.34
2023-04-25T04:29:47.932Z,89.22
2023-04-25T04:30:52.279Z,89.13
2023-04-25T04:31:56.632Z,89.07
2023-04-25T04:33:00.679Z,88.92
2023-04-25T04:34:04.981Z,88.75
2023-04-25T04:35:09.206Z,88.68
2023-04-25T04:36:13.424Z,88.64
2023-04-25T04:37:17.664Z,88.54
2023-04-25T04:38:21.881Z,88.51
2023-04-25T04:39:26.150Z,88.33
2023-04-25T04:40:30.455Z,88.13
2023-04-25T04:41:34.708Z,87.99
2023-04-25T04:42:38.977Z,88.00
2023-04-25T04:43:43.236Z,88.06
2023-04-25T04:44:47.509Z,88.03
2023-04-25T04:45:51.818Z,87.77
2023-04-25T04:46:56.060Z,87.61
2023-04-25T04:48:00.306Z,87.56
2023-04-25T04:49:04.603Z,87.41
2023-04-25T04:50:08.912Z,87.27
2023-04-25T04:51:13.152Z,87.09
2023-04-25T04:52:17.365Z,86.93
2023-04-25T04:53:21.667Z,86.66
2023-04-25T04:54:25.901Z,86.52
2023-04-25T04:55:30.081Z,86.46
2023-04-25T04:56:34.336Z,86.34
2023-04-25T04:57:38.572Z,86.20
2023-04-25T04:58:42.824Z,86.05
2023-04-25T04:59:47.244Z,86.00
2023-04-25T05:00:51.495Z,85.77
2023-04-25T05:01:55.672Z,85.70
2023-04-25T05:03:00.068Z,85.78
2023-04-25T05:04:04.451Z,85.79
2023-04-25T05:05:08.478Z,85.81
2023-04-25T05:06:12.915Z,85.83
2023-04-25T05:07:17.057Z,85.82
2023-04-25T05:08:21.351Z,85.79
2023-04-25T05:09:25.604Z,85.62
2023-04-25T05:10:30.759Z,85.39
2023-04-25T05:11:34.616Z,85.18
2023-04-25T05:12:38.880Z,85.08
2023-04-25T05:13:43.221Z,85.13
2023-04-25T05:14:47.484Z,85.14
2023-04-25T05:15:51.740Z,85.21
2023-04-25T05:16:55.993Z,85.20
2023-04-25T05:18:00.300Z,85.11
2023-04-25T05:19:04.523Z,85.06
2023-04-25T05:20:08.874Z,84.87
2023-04-25T05:21:13.061Z,84.77
2023-04-25T05:22:17.324Z,84.76
2023-04-25T05:23:21.711Z,84.78
2023-04-25T05:24:25.916Z,84.86
2023-04-25T05:25:30.212Z,84.86
2023-04-25T05:26:34.481Z,84.84
2023-04-25T05:27:38.815Z,84.78
2023-04-25T05:28:42.999Z,84.85
2023-04-25T05:29:47.235Z,84.79
2023-04-25T05:30:51.472Z,84.87
2023-04-25T05:31:55.781Z,84.84
2023-04-25T05:32:59.957Z,84.81
2023-04-25T05:34:04.300Z,84.72
2023-04-25T05:35:08.556Z,84.66
2023-04-25T05:36:12.826Z,84.67
2023-04-25T05:37:16.977Z,84.61
2023-04-25T05:38:21.278Z,84.64
2023-04-25T05:39:25.474Z,84.53
2023-04-25T05:40:29.771Z,84.38
2023-04-25T05:41:34.234Z,84.13
2023-04-25T05:42:38.429Z,84.06
2023-04-25T05:43:42.626Z,83.95
2023-04-25T05:44:46.945Z,84.00
2023-04-25T05:45:51.178Z,83.80
2023-04-25T05:46:55.492Z,83.61
2023-04-25T05:48:02.732Z,83.35
2023-04-25T05:49:05.982Z,83.30
2023-04-25T05:50:10.420Z,83.36
2023-04-25T05:51:14.608Z,83.34
2023-04-25T05:52:21.897Z,83.24
2023-04-25T05:53:25.141Z,83.11
2023-04-25T05:54:29.434Z,83.11
2023-04-25T05:55:33.646Z,83.06
2023-04-25T05:56:37.977Z,82.84
2023-04-25T05:57:42.193Z,82.51
2023-04-25T05:58:46.563Z,81.96
2023-04-25T05:59:50.815Z,81.95
2023-04-25T06:00:55.032Z,81.14
2023-04-25T06:01:59.401Z,80.43
2023-04-25T06:03:03.767Z,80.18
2023-04-25T06:04:08.132Z,80.13
2023-04-25T06:05:12.369Z,79.86
2023-04-25T06:06:16.410Z,79.60
2023-04-25T06:07:20.660Z,79.35
2023-04-25T06:08:24.898Z,79.20
2023-04-25T06:09:29.301Z,79.00
2023-04-25T06:10:33.544Z,79.02
2023-04-25T06:11:37.791Z,79.05
2023-04-25T06:12:42.146Z,78.95
2023-04-25T06:13:46.398Z,78.67
2023-04-25T06:14:50.641Z,78.73
2023-04-25T06:15:55.178Z,78.81
2023-04-25T06:16:59.312Z,78.70
2023-04-25T06:18:03.665Z,78.55
2023-04-25T06:19:07.846Z,78.61
2023-04-25T06:20:12.088Z,78.56
2023-04-25T06:21:16.375Z,78.62
2023-04-25T06:22:21.559Z,78.30
2023-04-25T06:23:25.562Z,78.50
2023-04-25T06:24:29.800Z,78.38
2023-04-25T06:25:34.091Z,78.41
2023-04-25T06:26:38.383Z,78.04
2023-04-25T06:27:43.491Z,77.97
2023-04-25T06:28:47.445Z,78.15
2023-04-25T06:29:51.639Z,78.31
2023-04-25T06:30:55.957Z,78.30
2023-04-25T06:32:00.168Z,78.17
2023-04-25T06:33:04.453Z,78.12
2023-04-25T06:34:08.672Z,78.42
2023-04-25T06:35:12.931Z,78.26
2023-04-25T06:36:17.177Z,78.11
2023-04-25T06:37:21.534Z,77.95
2023-04-25T06:38:25.730Z,77.86
2023-04-25T06:39:30.009Z,77.90
2023-04-25T06:40:34.253Z,77.92
2023-04-25T06:41:39.444Z,77.77
2023-04-25T06:42:43.305Z,77.30
2023-04-25T06:43:47.603Z,76.84
2023-04-25T06:44:51.955Z,76.34
2023-04-25T06:45:56.181Z,76.27
2023-04-25T06:47:00.495Z,76.23
2023-04-25T06:48:10.782Z,76.22
2023-04-25T06:49:13.566Z,76.47
2023-04-25T06:50:17.933Z,76.13
2023-04-25T06:51:24.182Z,75.59
2023-04-25T06:52:26.335Z,75.01
2023-04-25T06:53:30.607Z,74.32
2023-04-25T06:54:34.865Z,74.37
2023-04-25T06:55:39.281Z,74.04
2023-04-25T06:56:43.545Z,74.34
2023-04-25T06:57:47.788Z,74.50
2023-04-25T06:58:52.423Z,74.45
2023-04-25T06:59:56.404Z,74.12
2023-04-25T07:01:00.750Z,73.50
2023-04-25T07:02:04.907Z,73.00
2023-04-25T07:03:09.349Z,72.82
2023-04-25T07:04:27.701Z,73.05
2023-04-25T07:05:30.399Z,73.47
2023-04-25T07:06:34.590Z,73.20
2023-04-25T07:07:38.860Z,72.99
2023-04-25T07:08:43.122Z,73.20
2023-04-25T07:09:47.421Z,73.01
2023-04-25T07:10:51.633Z,72.71
2023-04-25T07:11:56.078Z,72.54
2023-04-25T07:13:14.285Z,72.18
2023-04-25T07:14:17.189Z,71.59
2023-04-25T07:15:21.387Z,71.59
2023-04-25T07:16:25.657Z,71.77
2023-04-25T07:17:29.948Z,71.71
2023-04-25T07:18:34.138Z,71.83
2023-04-25T07:19:38.403Z,71.80
2023-04-25T07:20:42.719Z,71.90
2023-04-25T07:21:47.091Z,71.82
2023-04-25T07:22:51.356Z,72.13
2023-04-25T07:23:55.487Z,71.83
2023-04-25T07:24:59.866Z,71.26
2023-04-25T07:26:04.139Z,71.36
2023-04-25T07:27:08.479Z,71.48
2023-04-25T07:28:12.702Z,71.13
2023-04-25T07:29:16.948Z,71.35
2023-04-25T07:30:21.225Z,71.77
2023-04-25T07:31:39.583Z,71.47
2023-04-25T07:32:42.599Z,71.53
2023-04-25T07:33:46.808Z,71.25
2023-04-25T07:34:51.026Z,71.27
2023-04-25T07:35:55.258Z,71.37
2023-04-25T07:36:59.546Z,71.22
2023-04-25T07:38:03.910Z,71.21
2023-04-25T07:39:08.130Z,70.90
2023-04-25T07:40:12.463Z,70.94
2023-04-25T07:41:16.628Z,71.22
2023-04-25T07:42:20.961Z,71.36
2023-04-25T07:43:25.350Z,71.49
2023-04-25T07:44:29.540Z,71.72
2023-04-25T07:45:33.879Z,71.63
2023-04-25T07:46:38.076Z,71.33
2023-04-25T07:47:42.373Z,70.76
2023-04-25T07:48:46.603Z,70.56
2023-04-25T07:49:50.886Z,70.68
2023-04-25T07:50:55.263Z,70.04
2023-04-25T07:51:59.459Z,69.80
2023-04-25T07:53:03.729Z,69.74
2023-04-25T07:54:07.992Z,69.62
2023-04-25T07:55:12.254Z,69.32
2023-04-25T07:56:16.574Z,69.54
2023-04-25T07:57:20.790Z,69.46
2023-04-25T07:58:25.163Z,68.96
2023-04-25T07:59:30.333Z,68.63
2023-04-25T08:00:33.699Z,68.77
2023-04-25T08:01:38.050Z,69.13
2023-04-25T08:02:42.350Z,69.23
2023-04-25T08:03:46.826Z,69.58
2023-04-25T08:04:51.109Z,69.79
2023-04-25T08:05:55.312Z,69.53
2023-04-25T08:06:59.333Z,69.73
2023-04-25T08:08:03.678Z,70.25
2023-04-25T08:09:07.974Z,70.42
2023-04-25T08:10:12.272Z,70.49
2023-04-25T08:11:16.655Z,70.78
2023-04-25T08:12:23.413Z,70.92
2023-04-25T08:13:25.094Z,70.93
2023-04-25T08:14:29.508Z,70.81
2023-04-25T08:15:33.762Z,70.76
2023-04-25T08:16:40.948Z,70.78
2023-04-25T08:17:44.332Z,70.95
2023-04-25T08:18:48.811Z,70.97
2023-04-25T08:19:52.811Z,70.81
2023-04-25T08:20:57.113Z,70.79
2023-04-25T08:22:01.397Z,71.04
2023-04-25T08:23:05.678Z,71.11
2023-04-25T08:24:09.940Z,71.30
2023-04-25T08:25:14.382Z,71.21
2023-04-25T08:26:18.576Z,70.92
2023-04-25T08:27:22.886Z,70.85
2023-04-25T08:28:27.196Z,71.05
2023-04-25T08:29:31.484Z,71.00
2023-04-25T08:30:35.818Z,71.14
2023-04-25T08:31:40.011Z,71.10
2023-04-25T08:32:44.306Z,70.78
2023-04-25T08:33:48.515Z,70.79
2023-04-25T08:34:52.889Z,70.72
2023-04-25T08:35:57.148Z,70.54
2023-04-25T08:37:01.446Z,70.57
2023-04-25T08:38:05.807Z,70.42
2023-04-25T08:39:09.936Z,70.22
2023-04-25T08:40:14.358Z,70.11
2023-04-25T08:41:18.568Z,70.15
2023-04-25T08:42:22.950Z,70.48
2023-04-25T08:43:27.192Z,70.77
2023-04-25T08:44:31.429Z,71.02
2023-04-25T08:45:35.740Z,71.17
2023-04-25T08:46:39.971Z,71.07
2023-04-25T08:47:44.150Z,71.05
2023-04-25T08:48:48.424Z,71.01
2023-04-25T08:49:52.591Z,70.46
2023-04-25T08:50:56.916Z,70.37
2023-04-25T08:52:04.174Z,70.38
2023-04-25T08:53:07.520Z,70.52
2023-04-25T08:54:35.005Z,70.80
2023-04-25T08:55:16.058Z,70.92
2023-04-25T08:56:20.306Z,70.95
2023-04-25T08:57:24.548Z,71.08
2023-04-25T08:58:28.769Z,71.19
2023-04-25T08:59:33.051Z,71.25
2023-04-25T09:00:37.301Z,71.48
2023-04-25T09:01:41.758Z,71.69
2023-04-25T09:02:46.096Z,71.85
2023-04-25T09:03:50.235Z,72.05
2023-04-25T09:04:54.426Z,72.15
2023-04-25T09:05:58.724Z,72.31
2023-04-25T09:07:02.919Z,72.47
2023-04-25T09:08:07.296Z,72.47
2023-04-25T09:09:11.533Z,72.50
2023-04-25T09:10:15.878Z,72.14
2023-04-25T09:11:21.602Z,72.07
2023-04-25T09:12:24.423Z,72.13
2023-04-25T09:13:28.734Z,71.74
2023-04-25T09:14:33.095Z,71.55
2023-04-25T09:15:37.248Z,71.24
2023-04-25T09:16:41.758Z,70.58
2023-04-25T09:17:45.836Z,69.78
2023-04-25T09:18:50.067Z,69.23
2023-04-25T09:19:54.348Z,68.81
2023-04-25T09:21:01.943Z,68.79
2023-04-25T09:22:05.965Z,68.59
2023-04-25T09:23:09.338Z,68.50
2023-04-25T09:24:13.669Z,68.33
2023-04-25T09:25:17.929Z,68.64
2023-04-25T09:26:22.131Z,69.09
2023-04-25T09:27:26.407Z,69.30
2023-04-25T09:28:31.167Z,68.97
2023-04-25T09:29:34.850Z,69.07
2023-04-25T09:30:39.252Z,68.90
2023-04-25T09:31:43.447Z,68.91
2023-04-25T09:32:48.002Z,69.17
2023-04-25T09:33:55.320Z,69.32
2023-04-25T09:34:56.389Z,69.47
2023-04-25T09:36:00.712Z,69.59
2023-04-25T09:37:04.862Z,69.78
2023-04-25T09:38:09.183Z,69.89
2023-04-25T09:39:13.280Z,70.10
2023-04-25T09:40:17.609Z,69.83
2023-04-25T09:41:21.792Z,69.89
2023-04-25T09:42:26.085Z,69.91
2023-04-25T09:43:30.445Z,70.09
2023-04-25T09:44:34.698Z,70.03
2023-04-25T09:45:38.974Z,69.87
2023-04-25T09:46:43.402Z,69.84
2023-04-25T09:47:47.546Z,69.67
2023-04-25T09:48:51.900Z,69.46
2023-04-25T09:49:56.119Z,69.35
2023-04-25T09:51:00.310Z,69.50
2023-04-25T09:52:04.577Z,69.57
2023-04-25T09:53:08.847Z,69.71
2023-04-25T09:54:13.117Z,69.58
2023-04-25T09:55:17.523Z,69.29
2023-04-25T09:56:21.717Z,69.55
2023-04-25T09:57:29.017Z,69.76
2023-04-25T09:58:33.309Z,69.85
2023-04-25T09:59:36.560Z,69.87
2023-04-25T10:00:40.802Z,69.86
2023-04-25T10:01:45.145Z,69.89
2023-04-25T10:02:49.697Z,69.88
2023-04-25T10:04:00.411Z,70.00
2023-04-25T10:05:02.790Z,69.99
2023-04-25T10:06:06.863Z,69.90
2023-04-25T10:07:11.110Z,70.00
2023-04-25T10:08:15.484Z,69.93
2023-04-25T10:09:19.743Z,69.97
2023-04-25T10:10:23.995Z,70.19
2023-04-25T10:11:28.257Z,70.42
2023-04-25T10:12:32.506Z,70.67
2023-04-25T10:13:36.778Z,70.69
2023-04-25T10:14:41.107Z,70.54
2023-04-25T10:15:45.239Z,70.37
2023-04-25T10:16:49.636Z,70.13
2023-04-25T10:17:53.859Z,69.97
2023-04-25T10:18:58.090Z,69.94
2023-04-25T10:20:02.364Z,69.92
2023-04-25T10:21:06.606Z,69.89
2023-04-25T10:22:10.872Z,69.87
2023-04-25T10:23:15.219Z,69.89
2023-04-25T10:24:19.473Z,70.05
2023-04-25T10:25:23.801Z,70.34
2023-04-25T10:26:29.550Z,70.46
2023-04-25T10:27:32.264Z,70.46
2023-04-25T10:28:36.666Z,70.35
2023-04-25T10:29:40.964Z,70.32
2023-04-25T10:30:45.171Z,70.26
2023-04-25T10:31:49.489Z,70.19
2023-04-25T10:32:53.718Z,70.24
2023-04-25T10:33:57.999Z,70.36
2023-04-25T10:35:02.335Z,70.42
2023-04-25T10:36:06.619Z,70.58
2023-04-25T10:37:10.779Z,70.92
2023-04-25T10:38:15.180Z,71.06
2023-04-25T10:39:19.472Z,70.61
2023-04-25T10:40:37.740Z,70.62
2023-04-25T10:41:40.799Z,70.61
2023-04-25T10:42:44.953Z,70.44
2023-04-25T10:43:49.398Z,70.17
2023-04-25T10:44:53.562Z,69.91
2023-04-25T10:45:57.789Z,69.89
2023-04-25T10:47:02.234Z,69.36
2023-04-25T10:48:06.389Z,69.15
2023-04-25T10:49:10.563Z,69.23
2023-04-25T10:50:14.904Z,68.87
2023-04-25T10:51:19.209Z,68.14
2023-04-25T10:52:23.437Z,67.86
2023-04-25T10:53:27.714Z,67.89
2023-04-25T10:54:31.967Z,67.77
2023-04-25T10:55:36.391Z,68.19
2023-04-25T10:56:40.787Z,68.01
2023-04-25T10:57:51.031Z,67.79
2023-04-25T10:58:54.267Z,67.78
2023-04-25T10:59:58.227Z,67.79
2023-04-25T11:01:02.562Z,67.46
2023-04-25T11:02:06.958Z,67.51
2023-04-25T11:03:11.172Z,67.71
2023-04-25T11:04:18.585Z,67.70
2023-04-25T11:05:21.659Z,67.59
2023-04-25T11:06:26.119Z,67.49
2023-04-25T11:07:30.343Z,67.21
2023-04-25T11:08:34.658Z,67.09
2023-04-25T11:09:38.925Z,66.92
2023-04-25T11:10:43.192Z,66.88
2023-04-25T11:11:47.527Z,66.88
2023-04-25T11:12:51.855Z,66.96
2023-04-25T11:13:56.086Z,66.96
2023-04-25T11:15:00.354Z,67.12
2023-04-25T11:16:13.113Z,67.46
2023-04-25T11:17:08.995Z,67.82
2023-04-25T11:18:13.178Z,67.81
2023-04-25T11:19:17.482Z,67.90
2023-04-25T11:20:21.732Z,67.81
2023-04-25T11:21:26.059Z,68.00
2023-04-25T11:22:30.401Z,67.44
2023-04-25T11:23:34.707Z,67.33
2023-04-25T11:24:38.928Z,67.62
2023-04-25T11:25:43.143Z,67.71
2023-04-25T11:26:47.442Z,67.78
2023-04-25T11:27:51.818Z,67.82
2023-04-25T11:28:56.023Z,67.75
2023-04-25T11:30:00.384Z,67.53
2023-04-25T11:31:04.600Z,67.62
2023-04-25T11:32:08.984Z,67.92
2023-04-25T11:33:13.247Z,68.05
2023-04-25T11:34:17.461Z,68.15
2023-04-25T11:35:21.800Z,68.22
2023-04-25T11:36:26.064Z,68.12
2023-04-25T11:37:30.290Z,68.06
2023-04-25T11:38:34.607Z,68.04
2023-04-25T11:39:38.784Z,68.29
2023-04-25T11:40:43.124Z,68.29
2023-04-25T11:41:47.629Z,68.26
2023-04-25T11:42:55.010Z,68.18
2023-04-25T11:43:56.415Z,68.40
2023-04-25T11:45:00.457Z,68.41
2023-04-25T11:46:04.835Z,68.31
2023-04-25T11:47:09.006Z,67.88
2023-04-25T11:48:13.300Z,67.53
2023-04-25T11:49:17.612Z,66.92
2023-04-25T11:50:21.891Z,66.19
2023-04-25T11:51:26.155Z,65.98
2023-04-25T11:52:30.422Z,65.89
2023-04-25T11:53:34.671Z,65.76
2023-04-25T11:54:38.970Z,65.66
2023-04-25T11:55:43.207Z,65.69
2023-04-25T11:56:47.607Z,65.82
2023-04-25T11:57:51.817Z,66.02
2023-04-25T11:58:56.102Z,66.20
2023-04-25T12:00:00.356Z,66.59
2023-04-25T12:01:04.631Z,66.63
2023-04-25T12:02:08.885Z,66.67
2023-04-25T12:03:13.242Z,66.73
2023-04-25T12:04:17.781Z,66.77
2023-04-25T12:05:32.096Z,66.64
2023-04-25T12:06:27.564Z,66.64
2023-04-25T12:07:30.414Z,66.45
2023-04-25T12:08:34.730Z,66.45
2023-04-25T12:09:38.974Z,66.25
2023-04-25T12:10:46.382Z,66.36
2023-04-25T12:11:49.679Z,66.75
2023-04-25T12:12:54.037Z,67.16
2023-04-25T12:13:58.296Z,67.27
2023-04-25T12:15:02.565Z,67.13
2023-04-25T12:16:06.864Z,66.63
2023-04-25T12:17:11.076Z,66.51
2023-04-25T12:18:15.430Z,66.59
2023-04-25T12:19:19.658Z,66.65
2023-04-25T12:20:24.041Z,66.70
2023-04-25T12:21:28.355Z,67.04
2023-04-25T12:22:32.603Z,67.23
2023-04-25T12:23:36.954Z,67.39
2023-04-25T12:24:41.195Z,67.75
2023-04-25T12:25:45.530Z,68.05
2023-04-25T12:26:49.878Z,68.38
2023-04-25T12:27:54.135Z,68.50
2023-04-25T12:28:58.410Z,68.09
2023-04-25T12:30:02.677Z,67.80
2023-04-25T12:31:07.142Z,67.94
2023-04-25T12:32:11.367Z,67.67
2023-04-25T12:33:15.692Z,67.37
2023-04-25T12:34:19.998Z,66.99
2023-04-25T12:35:24.246Z,67.20
2023-04-25T12:36:28.572Z,67.33
2023-04-25T12:37:32.877Z,67.07
2023-04-25T12:38:37.166Z,66.71
2023-04-25T12:39:41.512Z,66.53
2023-04-25T12:40:45.897Z,66.11
2023-04-25T12:41:50.156Z,65.73
2023-04-25T12:42:54.598Z,64.97
2023-04-25T12:43:58.698Z,64.18
2023-04-25T12:45:03.023Z,64.06
2023-04-25T12:46:07.366Z,63.80
2023-04-25T12:47:11.789Z,63.32
2023-04-25T12:48:15.995Z,63.12
2023-04-25T12:49:20.275Z,62.91
2023-04-25T12:50:24.631Z,63.31
2023-04-25T12:51:28.947Z,63.28
2023-04-25T12:52:33.223Z,63.06
2023-04-25T12:53:37.579Z,63.49
2023-04-25T12:54:41.825Z,64.01
2023-04-25T12:55:46.167Z,64.46
2023-04-25T12:56:50.375Z,64.69
2023-04-25T12:57:54.624Z,64.77
2023-04-25T12:58:59.021Z,64.70
2023-04-25T13:00:03.219Z,64.80
2023-04-25T13:01:07.538Z,65.06
2023-04-25T13:02:11.890Z,65.17
2023-04-25T13:03:16.287Z,65.37
2023-04-25T13:04:20.555Z,65.55
2023-04-25T13:05:24.610Z,65.72
2023-04-25T13:06:29.013Z,65.99
2023-04-25T13:07:34.136Z,66.22
2023-04-25T13:08:37.595Z,66.33
2023-04-25T13:09:41.853Z,66.00
2023-04-25T13:10:46.133Z,65.77
2023-04-25T13:11:50.342Z,65.76
2023-04-25T13:12:54.716Z,65.61
2023-04-25T13:13:59.028Z,65.45
2023-04-25T13:15:03.319Z,65.53
2023-04-25T13:16:07.706Z,65.53
2023-04-25T13:17:11.938Z,65.36
2023-04-25T13:18:16.247Z,65.33
2023-04-25T13:19:20.448Z,65.22
2023-04-25T13:20:24.718Z,65.18
2023-04-25T13:21:29.016Z,65.21
2023-04-25T13:22:33.312Z,65.43
2023-04-25T13:23:37.622Z,65.68
2023-04-25T13:24:41.844Z,65.85
2023-04-25T13:25:46.125Z,65.94
2023-04-25T13:26:50.398Z,66.13
2023-04-25T13:27:54.716Z,66.37
2023-04-25T13:28:59.054Z,66.62
2023-04-25T13:30:03.412Z,66.74
2023-04-25T13:31:07.660Z,66.70
2023-04-25T13:32:11.999Z,66.68
2023-04-25T13:33:30.312Z,66.90
2023-04-25T13:34:33.398Z,66.77
2023-04-25T13:35:37.634Z,66.63
2023-04-25T13:36:41.950Z,66.58
2023-04-25T13:37:46.190Z,66.51
2023-04-25T13:38:50.587Z,66.56
2023-04-25T13:39:54.730Z,66.36
2023-04-25T13:40:59.054Z,66.41
2023-04-25T13:42:03.300Z,66.34
2023-04-25T13:43:07.669Z,66.48
2023-04-25T13:44:11.898Z,66.67
2023-04-25T13:45:16.177Z,66.81
2023-04-25T13:46:40.964Z,66.76
2023-04-25T13:47:24.910Z,66.90
2023-04-25T13:48:29.101Z,66.94
2023-04-25T13:49:33.408Z,66.91
2023-04-25T13:50:37.780Z,66.81
2023-04-25T13:51:42.037Z,66.54
2023-04-25T13:52:46.318Z,66.35
2023-04-25T13:53:50.797Z,66.41
2023-04-25T13:54:54.836Z,66.44
2023-04-25T13:55:59.190Z,66.68
2023-04-25T13:57:03.402Z,66.22
2023-04-25T13:58:07.656Z,66.09
2023-04-25T13:59:11.938Z,65.86
2023-04-25T14:00:16.156Z,65.67
2023-04-25T14:01:20.678Z,65.59
2023-04-25T14:02:24.976Z,65.59